Wetterdaten: Woche 09.05.16 - 15.05.16 (KW19)
Datum Zeit Temp. A. Feuchte A. Luftdruck Regen Wind Richtung Taupunkt Windchill Windben
09.05.2016 00:00 9,5 C 80 % 1016,9 hPa 0,0 l/m 0,0 km/h N 6,3 C 9,5 C 0,0 km/h
09.05.2016 01:00 8,7 C 82 % 1016,6 hPa 0,0 l/m 0,0 km/h N 5,7 C 8,7 C 0,0 km/h
09.05.2016 02:00 7,9 C 83 % 1016,4 hPa 0,0 l/m 0,0 km/h N 5,2 C 7,9 C 0,0 km/h
09.05.2016 03:00 7,3 C 83 % 1016,5 hPa 0,0 l/m 0,0 km/h N 4,6 C 7,3 C 0,0 km/h
09.05.2016 04:00 6,8 C 83 % 1016,7 hPa 0,0 l/m 0,0 km/h N 4,1 C 6,8 C 0,0 km/h
09.05.2016 05:00 6,4 C 83 % 1016,7 hPa 0,0 l/m 0,0 km/h N 3,8 C 6,4 C 0,0 km/h
09.05.2016 06:00 6,6 C 83 % 1017,0 hPa 0,0 l/m 0,0 km/h N 3,9 C 6,6 C 0,0 km/h
09.05.2016 07:00 8,9 C 81 % 1017,0 hPa 0,0 l/m 0,0 km/h N 5,8 C 8,9 C 1,2 km/h
09.05.2016 08:00 12,0 C 81 % 1017,3 hPa 0,0 l/m 0,1 km/h N 8,7 C 12,0 C 3,2 km/h
09.05.2016 09:00 16,2 C 75 % 1017,4 hPa 0,0 l/m 2,3 km/h N 11,7 C 16,2 C 8,1 km/h
09.05.2016 10:00 19,7 C 59 % 1017,3 hPa 0,0 l/m 3,0 km/h N 11,5 C 19,7 C 12,1 km/h
09.05.2016 11:00 21,6 C 53 % 1017,1 hPa 0,0 l/m 3,4 km/h N 11,5 C 21,6 C 12,1 km/h
09.05.2016 12:00 22,4 C 49 % 1017,0 hPa 0,0 l/m 4,3 km/h N 11,2 C 22,4 C 15,3 km/h
09.05.2016 13:00 22,6 C 49 % 1016,8 hPa 0,0 l/m 3,2 km/h N 11,2 C 22,6 C 14,1 km/h
09.05.2016 14:00 23,0 C 47 % 1016,6 hPa 0,0 l/m 3,7 km/h N 10,9 C 23,0 C 14,1 km/h
09.05.2016 15:00 22,7 C 46 % 1016,3 hPa 0,0 l/m 3,1 km/h N 10,4 C 22,7 C 12,5 km/h
09.05.2016 16:00 21,9 C 48 % 1016,0 hPa 0,0 l/m 3,0 km/h N 10,4 C 21,9 C 12,1 km/h
09.05.2016 17:00 21,6 C 49 % 1015,8 hPa 0,0 l/m 2,7 km/h N 10,4 C 21,6 C 11,7 km/h
09.05.2016 18:00 21,6 C 50 % 1015,6 hPa 0,0 l/m 1,6 km/h N 10,8 C 21,6 C 10,1 km/h
09.05.2016 19:00 21,4 C 52 % 1015,6 hPa 0,0 l/m 1,0 km/h N 11,0 C 21,4 C 6,0 km/h
09.05.2016 20:00 19,6 C 57 % 1016,0 hPa 0,0 l/m 0,0 km/h N 10,7 C 19,6 C 0,8 km/h
09.05.2016 21:00 17,5 C 63 % 1016,6 hPa 0,0 l/m 0,6 km/h N 10,3 C 17,5 C 7,3 km/h
09.05.2016 22:00 16,0 C 65 % 1016,7 hPa 0,0 l/m 0,4 km/h N 9,4 C 16,0 C 4,0 km/h
09.05.2016 23:00 14,4 C 69 % 1016,8 hPa 0,0 l/m 0,3 km/h N 8,8 C 14,4 C 4,4 km/h
10.05.2016 00:00 13,4 C 72 % 1016,8 hPa 0,0 l/m 0,3 km/h N 8,5 C 13,4 C 4,0 km/h
10.05.2016 01:00 12,1 C 74 % 1016,4 hPa 0,0 l/m 0,0 km/h N 7,5 C 12,1 C 0,0 km/h
10.05.2016 02:00 10,4 C 77 % 1016,1 hPa 0,0 l/m 0,0 km/h N 6,5 C 10,4 C 0,0 km/h
10.05.2016 03:00 9,4 C 81 % 1016,3 hPa 0,0 l/m 0,0 km/h N 6,2 C 9,4 C 0,0 km/h
10.05.2016 04:00 8,6 C 82 % 1015,9 hPa 0,0 l/m 0,0 km/h N 5,7 C 8,6 C 0,0 km/h
10.05.2016 05:00 7,9 C 83 % 1016,0 hPa 0,0 l/m 0,0 km/h N 5,2 C 7,9 C 0,0 km/h
10.05.2016 06:00 8,1 C 83 % 1016,2 hPa 0,0 l/m 0,0 km/h N 5,3 C 8,1 C 0,4 km/h
10.05.2016 07:00 10,7 C 81 % 1015,9 hPa 0,0 l/m 0,2 km/h N 7,6 C 10,7 C 3,6 km/h
10.05.2016 08:00 13,4 C 82 % 1015,6 hPa 0,0 l/m 1,1 km/h N 10,2 C 13,4 C 6,8 km/h
10.05.2016 09:00 16,5 C 72 % 1015,1 hPa 0,0 l/m 2,9 km/h N 11,4 C 16,5 C 10,9 km/h
10.05.2016 10:00 17,7 C 63 % 1014,9 hPa 0,0 l/m 4,4 km/h N 10,5 C 17,7 C 16,5 km/h
10.05.2016 11:00 19,1 C 61 % 1014,7 hPa 0,0 l/m 3,9 km/h N 11,3 C 19,1 C 15,7 km/h
10.05.2016 12:00 19,0 C 61 % 1014,3 hPa 0,0 l/m 3,4 km/h N 11,3 C 19,0 C 15,7 km/h
10.05.2016 13:00 18,1 C 65 % 1014,2 hPa 0,0 l/m 3,9 km/h N 11,4 C 18,1 C 14,1 km/h
10.05.2016 14:00 17,8 C 68 % 1013,9 hPa 0,0 l/m 3,5 km/h N 11,7 C 17,8 C 13,7 km/h
10.05.2016 15:00 18,2 C 67 % 1013,5 hPa 0,0 l/m 3,6 km/h N 11,8 C 18,2 C 16,5 km/h
10.05.2016 16:00 17,4 C 67 % 1013,5 hPa 0,0 l/m 3,8 km/h N 11,3 C 17,4 C 15,7 km/h
10.05.2016 17:00 16,8 C 70 % 1013,5 hPa 0,0 l/m 3,1 km/h N 11,3 C 16,8 C 12,1 km/h
10.05.2016 18:00 16,6 C 72 % 1013,2 hPa 0,0 l/m 1,7 km/h N 11,6 C 16,6 C 11,6 km/h
10.05.2016 19:00 16,1 C 75 % 1013,0 hPa 0,0 l/m 1,6 km/h N 11,6 C 16,1 C 9,3 km/h
10.05.2016 20:00 15,2 C 77 % 1013,0 hPa 0,0 l/m 1,0 km/h N 11,2 C 15,2 C 8,1 km/h
10.05.2016 21:00 14,3 C 80 % 1013,3 hPa 0,0 l/m 0,3 km/h N 10,8 C 14,3 C 3,6 km/h
10.05.2016 22:00 13,6 C 81 % 1013,4 hPa 0,0 l/m 0,4 km/h N 10,4 C 13,6 C 4,8 km/h
10.05.2016 23:00 13,4 C 82 % 1013,1 hPa 0,0 l/m 0,4 km/h N 10,4 C 13,4 C 4,8 km/h
11.05.2016 00:00 13,0 C 82 % 1012,7 hPa 0,0 l/m 0,2 km/h N 10,0 C 13,0 C 4,0 km/h
11.05.2016 01:00 12,6 C 82 % 1012,3 hPa 0,0 l/m 0,0 km/h N 9,6 C 12,6 C 0,4 km/h
11.05.2016 02:00 12,4 C 82 % 1011,9 hPa 0,0 l/m 0,0 km/h N 9,5 C 12,4 C 1,2 km/h
11.05.2016 03:00 12,5 C 82 % 1011,7 hPa 0,0 l/m 0,1 km/h N 9,6 C 12,5 C 2,8 km/h
11.05.2016 04:00 12,5 C 82 % 1011,4 hPa 0,0 l/m 0,3 km/h N 9,5 C 12,5 C 5,6 km/h
11.05.2016 05:00 12,4 C 82 % 1011,4 hPa 0,0 l/m 0,5 km/h N 9,5 C 12,4 C 5,2 km/h
11.05.2016 06:00 12,6 C 82 % 1011,3 hPa 0,0 l/m 0,4 km/h N 9,5 C 12,6 C 5,6 km/h
11.05.2016 07:00 12,8 C 81 % 1011,3 hPa 0,0 l/m 0,3 km/h N 9,6 C 12,8 C 4,0 km/h
11.05.2016 08:00 13,1 C 82 % 1011,2 hPa 0,0 l/m 0,5 km/h N 10,0 C 13,1 C 5,2 km/h
11.05.2016 09:00 13,5 C 82 % 1011,3 hPa 0,0 l/m 0,9 km/h N 10,4 C 13,5 C 7,2 km/h
11.05.2016 10:00 13,9 C 82 % 1011,4 hPa 0,0 l/m 1,0 km/h N 10,9 C 13,9 C 6,8 km/h
11.05.2016 11:00 14,5 C 82 % 1010,8 hPa 0,0 l/m 1,5 km/h N 11,5 C 14,5 C 10,5 km/h
11.05.2016 12:00 15,9 C 79 % 1010,1 hPa 0,0 l/m 1,8 km/h N 12,3 C 15,9 C 9,3 km/h
11.05.2016 13:00 17,4 C 74 % 1009,7 hPa 0,0 l/m 2,9 km/h N 12,8 C 17,4 C 12,5 km/h
11.05.2016 14:00 18,3 C 71 % 1009,3 hPa 0,0 l/m 3,8 km/h N 13,0 C 18,3 C 14,1 km/h
11.05.2016 15:00 18,7 C 70 % 1008,7 hPa 0,0 l/m 3,2 km/h N 13,1 C 18,7 C 11,3 km/h
11.05.2016 16:00 18,8 C 70 % 1008,2 hPa 0,0 l/m 4,0 km/h N 13,1 C 18,8 C 14,1 km/h
11.05.2016 17:00 18,6 C 69 % 1007,8 hPa 0,0 l/m 3,2 km/h N 12,7 C 18,6 C 11,7 km/h
11.05.2016 18:00 18,0 C 71 % 1007,3 hPa 0,0 l/m 2,3 km/h N 12,6 C 18,0 C 8,0 km/h
11.05.2016 19:00 17,1 C 74 % 1007,0 hPa 0,0 l/m 1,6 km/h N 12,4 C 17,1 C 8,8 km/h
11.05.2016 20:00 16,5 C 76 % 1006,7 hPa 0,0 l/m 0,5 km/h N 12,3 C 16,5 C 5,2 km/h
11.05.2016 21:00 16,0 C 78 % 1006,5 hPa 0,0 l/m 0,7 km/h N 12,2 C 16,0 C 5,2 km/h
11.05.2016 22:00 15,8 C 79 % 1006,2 hPa 0,0 l/m 0,3 km/h N 12,2 C 15,8 C 2,8 km/h
11.05.2016 23:00 15,5 C 81 % 1005,7 hPa 0,0 l/m 0,9 km/h N 12,2 C 15,5 C 7,3 km/h
12.05.2016 00:00 15,1 C 81 % 1005,5 hPa 0,0 l/m 1,3 km/h N 11,9 C 15,1 C 6,8 km/h
12.05.2016 01:00 14,9 C 82 % 1004,8 hPa 0,0 l/m 0,7 km/h N 11,8 C 14,9 C 6,9 km/h
12.05.2016 02:00 14,6 C 82 % 1004,4 hPa 0,0 l/m 0,4 km/h N 11,6 C 14,6 C 4,8 km/h
12.05.2016 03:00 14,4 C 82 % 1003,8 hPa 1,3 l/m 0,0 km/h N 11,4 C 14,4 C 2,0 km/h
12.05.2016 04:00 14,1 C 82 % 1003,5 hPa 2,1 l/m 0,8 km/h N 11,1 C 14,1 C 6,4 km/h
12.05.2016 05:00 13,8 C 82 % 1002,8 hPa 1,3 l/m 0,3 km/h N 10,7 C 13,8 C 3,6 km/h
12.05.2016 06:00 13,8 C 81 % 1002,4 hPa 0,3 l/m 0,1 km/h N 10,6 C 13,8 C 1,6 km/h
12.05.2016 07:00 13,9 C 81 % 1002,2 hPa 1,8 l/m 0,3 km/h N 10,6 C 13,9 C 3,6 km/h
12.05.2016 08:00 13,9 C 80 % 1001,9 hPa 1,8 l/m 0,4 km/h N 10,5 C 13,9 C 4,4 km/h
12.05.2016 09:00 13,6 C 80 % 1001,5 hPa 0,3 l/m 1,7 km/h N 10,3 C 13,6 C 10,1 km/h
12.05.2016 10:00 13,5 C 80 % 1001,3 hPa 0,0 l/m 2,1 km/h N 10,2 C 13,5 C 10,1 km/h
12.05.2016 11:00 13,5 C 79 % 1001,1 hPa 0,0 l/m 1,7 km/h N 10,0 C 13,5 C 10,4 km/h
12.05.2016 12:00 13,7 C 79 % 1000,6 hPa 0,3 l/m 1,3 km/h N 10,1 C 13,7 C 6,8 km/h
12.05.2016 13:00 14,0 C 79 % 1000,2 hPa 0,8 l/m 1,6 km/h N 10,5 C 14,0 C 12,1 km/h
12.05.2016 14:00 14,2 C 79 % 999,5 hPa 0,0 l/m 0,7 km/h N 10,5 C 14,2 C 6,4 km/h
12.05.2016 15:00 14,4 C 78 % 998,7 hPa 0,0 l/m 1,0 km/h N 10,6 C 14,4 C 8,0 km/h
12.05.2016 16:00 14,4 C 78 % 998,3 hPa 0,3 l/m 1,6 km/h N 10,6 C 14,4 C 9,3 km/h
12.05.2016 17:00 14,4 C 78 % 997,8 hPa 0,0 l/m 1,0 km/h N 10,6 C 14,4 C 6,4 km/h
12.05.2016 18:00 14,2 C 79 % 997,4 hPa 1,0 l/m 0,0 km/h N 10,5 C 14,2 C 1,6 km/h
12.05.2016 19:00 14,0 C 79 % 996,8 hPa 8,1 l/m 0,1 km/h N 10,4 C 14,0 C 2,4 km/h
12.05.2016 20:00 14,0 C 78 % 996,3 hPa 5,2 l/m 0,1 km/h N 10,2 C 14,0 C 2,4 km/h
12.05.2016 21:00 14,1 C 78 % 996,2 hPa 1,0 l/m 0,0 km/h N 10,3 C 14,1 C 0,4 km/h
12.05.2016 22:00 14,2 C 78 % 995,8 hPa 1,6 l/m 0,0 km/h N 10,4 C 14,2 C 0,0 km/h
12.05.2016 23:00 14,1 C 78 % 995,2 hPa 2,9 l/m 0,0 km/h N 10,4 C 14,1 C 0,4 km/h
13.05.2016 00:00 14,1 C 78 % 994,6 hPa 0,5 l/m 0,2 km/h N 10,3 C 14,1 C 2,4 km/h
13.05.2016 01:00 13,6 C 78 % 994,1 hPa 1,0 l/m 0,3 km/h N 9,9 C 13,6 C 4,0 km/h
13.05.2016 02:00 13,1 C 78 % 993,7 hPa 3,1 l/m 0,4 km/h N 9,4 C 13,1 C 4,8 km/h
13.05.2016 03:00 12,1 C 79 % 993,1 hPa 1,6 l/m 4,6 km/h N 8,5 C 11,9 C 19,7 km/h
13.05.2016 04:00 11,7 C 80 % 992,8 hPa 0,3 l/m 3,3 km/h N 8,4 C 11,7 C 16,5 km/h
13.05.2016 05:00 11,5 C 81 % 992,9 hPa 0,3 l/m 0,8 km/h N 8,4 C 11,5 C 8,1 km/h
13.05.2016 06:00 11,4 C 82 % 992,8 hPa 0,0 l/m 1,3 km/h N 8,4 C 11,4 C 10,5 km/h
13.05.2016 07:00 11,9 C 82 % 992,6 hPa 0,0 l/m 1,4 km/h N 9,0 C 11,9 C 12,4 km/h
13.05.2016 08:00 12,9 C 82 % 992,8 hPa 0,0 l/m 2,9 km/h N 10,0 C 12,9 C 17,3 km/h
13.05.2016 09:00 14,4 C 78 % 992,7 hPa 0,0 l/m 3,0 km/h N 10,7 C 14,4 C 18,1 km/h
13.05.2016 10:00 15,9 C 74 % 993,0 hPa 0,0 l/m 2,3 km/h N 11,2 C 15,9 C 12,9 km/h
13.05.2016 11:00 16,1 C 70 % 993,4 hPa 0,0 l/m 3,5 km/h N 10,5 C 16,1 C 16,1 km/h
13.05.2016 12:00 16,5 C 69 % 993,8 hPa 0,0 l/m 2,7 km/h N 10,8 C 16,5 C 15,3 km/h
13.05.2016 13:00 16,9 C 68 % 993,9 hPa 0,0 l/m 3,3 km/h N 10,9 C 16,9 C 14,5 km/h
13.05.2016 14:00 15,7 C 71 % 994,3 hPa 0,0 l/m 1,1 km/h N 10,5 C 15,7 C 8,5 km/h
13.05.2016 15:00 16,4 C 73 % 994,2 hPa 0,0 l/m 0,4 km/h N 11,4 C 16,4 C 7,7 km/h
13.05.2016 16:00 17,7 C 68 % 994,2 hPa 0,0 l/m 2,6 km/h N 11,6 C 17,7 C 15,7 km/h
13.05.2016 17:00 16,4 C 73 % 994,6 hPa 0,0 l/m 3,1 km/h N 11,5 C 16,4 C 12,4 km/h
13.05.2016 18:00 15,1 C 77 % 994,9 hPa 0,0 l/m 4,3 km/h N 11,1 C 14,9 C 13,3 km/h
13.05.2016 19:00 14,5 C 80 % 995,0 hPa 0,0 l/m 4,5 km/h N 11,1 C 14,5 C 14,9 km/h
13.05.2016 20:00 14,5 C 80 % 995,3 hPa 0,0 l/m 5,7 km/h N 11,1 C 14,2 C 16,9 km/h
13.05.2016 21:00 14,3 C 80 % 995,7 hPa 0,0 l/m 2,3 km/h N 11,0 C 14,3 C 10,9 km/h
13.05.2016 22:00 13,9 C 82 % 996,1 hPa 0,5 l/m 2,8 km/h N 10,8 C 13,9 C 10,9 km/h
13.05.2016 23:00 13,8 C 82 % 996,3 hPa 0,0 l/m 5,7 km/h N 10,8 C 13,6 C 16,5 km/h
14.05.2016 00:00 14,0 C 82 % 996,4 hPa 0,0 l/m 7,3 km/h N 11,0 C 13,5 C 18,1 km/h
14.05.2016 01:00 14,2 C 82 % 996,5 hPa 0,0 l/m 8,3 km/h N 11,1 C 13,0 C 20,5 km/h
14.05.2016 02:00 13,9 C 82 % 996,7 hPa 0,0 l/m 8,3 km/h N 10,9 C 12,8 C 18,5 km/h
14.05.2016 03:00 14,1 C 81 % 996,9 hPa 0,0 l/m 9,0 km/h N 10,9 C 12,6 C 22,9 km/h
14.05.2016 04:00 14,0 C 81 % 997,0 hPa 0,0 l/m 9,3 km/h N 10,8 C 12,4 C 22,5 km/h
14.05.2016 05:00 14,1 C 81 % 997,3 hPa 0,0 l/m 9,0 km/h N 10,9 C 12,6 C 22,9 km/h
14.05.2016 06:00 14,2 C 81 % 997,9 hPa 0,0 l/m 9,6 km/h N 10,9 C 12,4 C 22,9 km/h
14.05.2016 07:00 14,4 C 80 % 998,3 hPa 0,0 l/m 11,3 km/h N 11,0 C 11,9 C 24,9 km/h
14.05.2016 08:00 14,6 C 80 % 998,7 hPa 0,0 l/m 10,4 km/h N 11,1 C 12,4 C 23,3 km/h
14.05.2016 09:00 14,7 C 79 % 999,3 hPa 0,3 l/m 13,4 km/h N 11,1 C 11,4 C 27,4 km/h
14.05.2016 10:00 13,7 C 81 % 1000,0 hPa 1,6 l/m 10,1 km/h N 10,6 C 11,6 C 22,9 km/h
14.05.2016 11:00 14,3 C 74 % 1000,7 hPa 0,0 l/m 10,9 km/h N 9,6 C 12,0 C 27,0 km/h
14.05.2016 12:00 16,5 C 73 % 1001,0 hPa 0,0 l/m 11,2 km/h N 11,7 C 14,4 C 26,6 km/h
14.05.2016 13:00 18,4 C 63 % 1001,2 hPa 0,0 l/m 14,1 km/h N 11,3 C 15,5 C 29,0 km/h
14.05.2016 14:00 19,1 C 48 % 1001,5 hPa 0,0 l/m 15,7 km/h N 7,8 C 16,1 C 33,8 km/h
14.05.2016 15:00 19,4 C 43 % 1001,7 hPa 0,0 l/m 15,1 km/h N 6,5 C 16,5 C 29,8 km/h
14.05.2016 16:00 19,5 C 47 % 1001,8 hPa 0,0 l/m 13,4 km/h N 7,7 C 17,0 C 28,2 km/h
14.05.2016 17:00 19,1 C 55 % 1002,3 hPa 0,0 l/m 10,5 km/h N 9,9 C 17,4 C 26,5 km/h
14.05.2016 18:00 18,5 C 57 % 1002,9 hPa 0,0 l/m 13,3 km/h N 9,6 C 15,9 C 28,2 km/h
14.05.2016 19:00 16,5 C 60 % 1004,1 hPa 0,0 l/m 10,6 km/h N 8,7 C 14,6 C 27,8 km/h
14.05.2016 20:00 15,3 C 67 % 1004,9 hPa 0,0 l/m 10,6 km/h N 9,1 C 13,2 C 26,9 km/h
14.05.2016 21:00 14,9 C 67 % 1005,9 hPa 0,0 l/m 7,5 km/h N 8,8 C 14,2 C 20,5 km/h
14.05.2016 22:00 14,9 C 63 % 1006,5 hPa 0,0 l/m 10,3 km/h N 7,8 C 12,9 C 25,3 km/h
14.05.2016 23:00 14,5 C 65 % 1007,0 hPa 0,0 l/m 11,9 km/h N 8,0 C 11,8 C 25,7 km/h
15.05.2016 00:00 14,2 C 67 % 1007,7 hPa 0,0 l/m 11,1 km/h N 8,0 C 11,7 C 24,5 km/h
15.05.2016 01:00 13,0 C 72 % 1008,3 hPa 0,0 l/m 11,1 km/h N 8,0 C 10,5 C 26,1 km/h
15.05.2016 02:00 11,6 C 75 % 1009,2 hPa 0,0 l/m 9,8 km/h N 7,4 C 9,6 C 24,5 km/h
15.05.2016 03:00 10,9 C 78 % 1010,0 hPa 0,0 l/m 7,1 km/h N 7,1 C 10,3 C 17,7 km/h
15.05.2016 04:00 10,0 C 75 % 1011,2 hPa 0,0 l/m 6,8 km/h N 5,7 C 9,5 C 19,3 km/h
15.05.2016 05:00 9,3 C 78 % 1011,8 hPa 0,0 l/m 4,5 km/h N 5,6 C 9,3 C 12,1 km/h
15.05.2016 06:00 9,0 C 72 % 1012,6 hPa 0,0 l/m 4,6 km/h N 4,3 C 9,0 C 12,5 km/h
15.05.2016 07:00 9,2 C 71 % 1013,3 hPa 0,0 l/m 3,7 km/h N 4,2 C 9,2 C 12,9 km/h
15.05.2016 08:00 9,6 C 66 % 1013,8 hPa 0,0 l/m 6,2 km/h N 3,6 C 9,6 C 17,7 km/h
15.05.2016 09:00 10,4 C 68 % 1013,7 hPa 0,0 l/m 5,9 km/h N 4,8 C 10,3 C 17,3 km/h
15.05.2016 10:00 10,8 C 66 % 1013,8 hPa 0,0 l/m 5,7 km/h N 4,7 C 10,6 C 17,3 km/h
15.05.2016 11:00 10,5 C 62 % 1014,3 hPa 0,0 l/m 4,4 km/h N 3,5 C 10,3 C 14,1 km/h
15.05.2016 12:00 11,2 C 56 % 1014,4 hPa 0,0 l/m 7,7 km/h N 2,6 C 10,3 C 20,5 km/h
15.05.2016 13:00 11,7 C 50 % 1014,4 hPa 0,0 l/m 8,7 km/h N 1,7 C 10,2 C 22,9 km/h
15.05.2016 14:00 12,1 C 50 % 1014,5 hPa 0,0 l/m 9,9 km/h N 2,1 C 10,1 C 26,1 km/h
15.05.2016 15:00 12,2 C 49 % 1014,5 hPa 0,0 l/m 9,9 km/h N 1,7 C 10,2 C 25,3 km/h
15.05.2016 16:00 12,4 C 46 % 1014,6 hPa 0,0 l/m 8,8 km/h N 1,2 C 11,0 C 23,3 km/h
15.05.2016 17:00 12,3 C 47 % 1014,8 hPa 0,0 l/m 6,7 km/h N 1,3 C 11,9 C 21,7 km/h
15.05.2016 18:00 12,1 C 51 % 1015,1 hPa 0,0 l/m 8,0 km/h N 2,1 C 11,0 C 20,9 km/h
15.05.2016 19:00 11,4 C 53 % 1015,6 hPa 0,0 l/m 7,4 km/h N 2,2 C 10,5 C 19,3 km/h
15.05.2016 20:00 10,5 C 56 % 1016,0 hPa 0,0 l/m 5,6 km/h N 2,2 C 10,5 C 18,9 km/h
15.05.2016 21:00 9,6 C 59 % 1016,5 hPa 0,0 l/m 2,4 km/h N 1,9 C 9,6 C 10,9 km/h
15.05.2016 22:00 9,3 C 59 % 1017,1 hPa 0,0 l/m 7,4 km/h N 1,5 C 8,3 C 20,5 km/h
15.05.2016 23:00 9,2 C 59 % 1017,3 hPa 0,0 l/m 8,1 km/h N 1,6 C 8,0 C 21,7 km/h
Min-Datum _ 09.05.16 14.05.16 13.05.16 - 09.05.16 - 15.05.16 09.05.16 09.05.16
_ Min-Zeit 05:45 15:16 06:00 - 00:00 - 15:45 05:45 00:00
Minimum _ 6,3 C 42 % 992,6 hPa - 0,0 km/h - 0,6 C 6,3 C 0,0 km/h
Max-Datum _ 09.05.16 09.05.16 09.05.16 12.05.16 14.05.16 - 11.05.16 09.05.16 14.05.16
_ Max-Zeit 15:00 02:30 09:01 19:45 15:00 - 15:45 14:45 14:45
Maximum _ 23,4 C 83 % 1017,5 hPa 8,1 l/m 16,7 km/h
N
- 13,3 C 23,3 C 37,0 km/h
N
Durchschnitt _ 14,3 C 72 % 1007,1 hPa #39,0 l/m 3,7 km/h N 9,2 C 13,9 C 11,9 km/h